Time;durP1;ratioP1;P1;durP2;ratioP2;P2;SDS_P1;SDS_P2;PMS_P1;PMS_P2;Temp;Humidity;BMP_temperature;BMP_pressure;BME280_temperature;BME280_humidity;BME280_pressure;Samples;Min_cycle;Max_cycle;Signal;HPM_P1;HPM_P2
2024/01/30 00:01:15;;;;;;;;;;;;;;;6.88;55.21;100683.92;67548;1282;1016454;-71
2024/01/30 00:04:24;;;;;;;;;;;;;;;6.77;55.50;100682.36;67528;1282;1015766;-71
2024/01/30 00:07:27;;;;;;;;;;;;;;;6.79;55.52;100678.50;67581;1282;1016123;-69
2024/01/30 00:10:30;;;;;;;;;;;;;;;6.78;55.52;100678.88;67557;1282;1016459;-71
2024/01/30 00:13:33;;;;;;;;;;;;;;;6.72;55.75;100676.35;67577;1282;1016476;-71
2024/01/30 00:16:35;;;;;;;;;;;;;;;6.72;55.98;100675.48;67604;1282;1016114;-71
2024/01/30 00:19:38;;;;;;;;;;;;;;;6.76;55.78;100675.06;67582;1282;1016094;-71
2024/01/30 00:22:40;;;;;;;;;;;;;;;6.80;55.53;100669.80;67537;1282;1016239;-71
2024/01/30 00:25:43;;;;;;;;;;;;;;;6.72;55.53;100667.65;67528;1282;1016176;-71
2024/01/30 00:28:45;;;;;;;;;;;;;;;6.61;55.75;100668.88;67581;1282;1016364;-71
2024/01/30 00:31:48;;;;;;;;;;;;;;;6.61;55.76;100666.26;67586;1282;1017657;-71
2024/01/30 00:34:50;;;;;;;;;;;;;;;6.54;56.02;100668.29;67559;1282;1016328;-71
2024/01/30 00:37:53;;;;;;;;;;;;;;;6.56;55.96;100666.15;67541;1282;1016677;-71
2024/01/30 00:40:56;;;;;;;;;;;;;;;6.58;56.07;100666.64;67570;1282;1019231;-71
2024/01/30 00:43:58;;;;;;;;;;;;;;;6.58;56.02;100664.40;67579;1282;1016788;-70
2024/01/30 00:47:00;;;;;;;;;;;;;;;6.54;55.78;100660.98;67550;1282;1016353;-71
2024/01/30 00:50:03;;;;;;;;;;;;;;;6.46;56.05;100665.09;67549;1282;1016266;-71
2024/01/30 00:53:05;;;;;;;;;;;;;;;6.50;56.02;100666.23;67590;1282;1017364;-71
2024/01/30 00:56:08;;;;;;;;;;;;;;;6.50;55.94;100670.95;67560;1282;1016439;-71
2024/01/30 00:59:10;;;;;;;;;;;;;;;6.58;55.86;100669.79;67547;1282;1016459;-70
2024/01/30 01:02:13;;;;;;;;;;;;;;;6.63;55.76;100672.14;67552;1282;1016482;-70
2024/01/30 01:05:16;;;;;;;;;;;;;;;6.59;55.71;100669.94;67551;1282;1016095;-70
2024/01/30 01:08:18;;;;;;;;;;;;;;;6.56;55.62;100665.13;67565;1282;1016837;-70
2024/01/30 01:11:21;;;;;;;;;;;;;;;6.52;55.89;100662.92;67516;1282;1016529;-70
2024/01/30 01:14:23;;;;;;;;;;;;;;;6.54;55.89;100656.64;67534;1282;1016177;-70
2024/01/30 01:17:26;;;;;;;;;;;;;;;6.55;55.85;100656.96;67572;1282;1016395;-72
2024/01/30 01:20:28;;;;;;;;;;;;;;;6.55;55.61;100654.35;67532;1282;1016364;-71
2024/01/30 01:23:31;;;;;;;;;;;;;;;6.58;55.61;100652.23;67532;1282;1016360;-71
2024/01/30 01:26:33;;;;;;;;;;;;;;;6.49;55.88;100650.64;67534;1282;1016504;-71
2024/01/30 01:29:36;;;;;;;;;;;;;;;6.53;56.10;100648.65;67577;1282;1015841;-71
2024/01/30 01:32:44;;;;;;;;;;;;;;;6.64;55.68;100646.22;67584;1282;1018718;-68
2024/01/30 01:35:47;;;;;;;;;;;;;;;6.67;55.19;100641.32;67602;1282;1016332;-70
2024/01/30 01:38:49;;;;;;;;;;;;;;;6.66;55.08;100639.07;67540;1282;1016798;-70
2024/01/30 01:41:52;;;;;;;;;;;;;;;6.64;55.33;100635.44;67562;1282;1016366;-71
2024/01/30 01:44:54;;;;;;;;;;;;;;;6.56;55.50;100634.71;67600;1282;1016771;-71
2024/01/30 01:47:56;;;;;;;;;;;;;;;6.46;55.81;100637.80;67588;1282;1016101;-71
2024/01/30 01:50:59;;;;;;;;;;;;;;;6.45;55.78;100640.23;67610;1282;1018252;-71
2024/01/30 01:54:01;;;;;;;;;;;;;;;6.50;55.52;100640.02;67564;1282;1016133;-69
2024/01/30 01:57:04;;;;;;;;;;;;;;;6.55;55.51;100632.63;67522;1282;1016473;-71
2024/01/30 02:00:07;;;;;;;;;;;;;;;6.67;55.19;100628.96;67560;1282;1016409;-71
2024/01/30 02:03:09;;;;;;;;;;;;;;;6.74;54.92;100624.85;67580;1282;1016488;-71
2024/01/30 02:06:12;;;;;;;;;;;;;;;6.74;54.73;100620.86;67538;1282;1016413;-71
2024/01/30 02:09:14;;;;;;;;;;;;;;;6.61;54.94;100620.54;67562;1282;1016304;-71
2024/01/30 02:12:17;;;;;;;;;;;;;;;6.43;55.36;100622.38;67612;1282;1018739;-71
2024/01/30 02:15:19;;;;;;;;;;;;;;;6.48;55.52;100618.48;67581;1282;1016109;-71
2024/01/30 02:18:22;;;;;;;;;;;;;;;6.42;55.51;100618.93;67538;1282;1016466;-71
2024/01/30 02:21:24;;;;;;;;;;;;;;;6.31;55.59;100618.92;67561;1282;1018279;-71
2024/01/30 02:24:27;;;;;;;;;;;;;;;6.17;56.11;100619.46;67603;1282;1016483;-71
2024/01/30 02:27:29;;;;;;;;;;;;;;;6.21;56.31;100618.71;67621;1282;1016068;-70
2024/01/30 02:30:32;;;;;;;;;;;;;;;6.26;56.22;100616.56;67561;1282;1016336;-71
2024/01/30 02:33:34;;;;;;;;;;;;;;;6.24;55.96;100614.50;67568;1282;1016391;-71
2024/01/30 02:36:37;;;;;;;;;;;;;;;6.26;56.36;100613.61;67594;1282;1016480;-71
2024/01/30 02:39:39;;;;;;;;;;;;;;;6.22;56.68;100613.14;67600;1282;1016063;-71
2024/01/30 02:42:42;;;;;;;;;;;;;;;6.16;56.72;100610.61;67564;1282;1016091;-71
2024/01/30 02:45:45;;;;;;;;;;;;;;;6.23;56.39;100604.61;67585;1282;1016491;-71
2024/01/30 02:48:47;;;;;;;;;;;;;;;6.21;56.14;100602.02;67603;1282;1016389;-71
2024/01/30 02:51:50;;;;;;;;;;;;;;;6.17;56.50;100603.66;67596;1282;1015875;-69
2024/01/30 02:54:53;;;;;;;;;;;;;;;6.18;56.54;100605.55;67559;1282;1016407;-71
2024/01/30 02:57:55;;;;;;;;;;;;;;;6.18;56.33;100611.81;67565;1282;1016706;-71
2024/01/30 03:00:58;;;;;;;;;;;;;;;6.04;56.82;100613.23;67611;1282;1015969;-71
2024/01/30 03:04:00;;;;;;;;;;;;;;;6.02;56.63;100610.11;67599;1282;1016408;-71
2024/01/30 03:07:03;;;;;;;;;;;;;;;5.98;56.78;100607.75;67548;1282;1016212;-71
2024/01/30 03:10:06;;;;;;;;;;;;;;;5.99;56.84;100610.33;67579;1282;1016466;-71
2024/01/30 03:13:08;;;;;;;;;;;;;;;6.01;57.07;100615.52;67596;1282;1016142;-71
2024/01/30 03:16:10;;;;;;;;;;;;;;;5.98;56.63;100609.83;67603;1282;1016305;-70
2024/01/30 03:19:13;;;;;;;;;;;;;;;6.00;56.70;100614.13;67572;1282;1016694;-67
2024/01/30 03:22:15;;;;;;;;;;;;;;;6.08;56.46;100618.89;67557;1282;1018734;-70
2024/01/30 03:25:18;;;;;;;;;;;;;;;6.08;56.72;100614.73;67591;1282;1015766;-67
2024/01/30 03:28:20;;;;;;;;;;;;;;;6.13;56.07;100606.33;67593;1282;1016472;-70
2024/01/30 03:31:23;;;;;;;;;;;;;;;6.11;56.21;100606.34;67583;1282;1016641;-71
2024/01/30 03:34:25;;;;;;;;;;;;;;;6.06;56.24;100605.55;67563;1282;1017045;-70
2024/01/30 03:37:28;;;;;;;;;;;;;;;6.14;55.89;100600.73;67531;1282;1016312;-71
2024/01/30 03:40:30;;;;;;;;;;;;;;;6.17;56.15;100592.89;65082;1281;5362670;-71
2024/01/30 03:43:32;;;;;;;;;;;;;;;6.12;55.83;100593.66;67593;1282;1016476;-71
2024/01/30 03:46:35;;;;;;;;;;;;;;;6.02;55.82;100590.33;67568;1282;1016418;-71
2024/01/30 03:49:37;;;;;;;;;;;;;;;5.97;56.01;100592.81;67529;1282;1016091;-71
2024/01/30 03:52:40;;;;;;;;;;;;;;;5.94;56.07;100592.30;67565;1282;1016252;-71
2024/01/30 03:55:51;;;;;;;;;;;;;;;5.93;56.14;100590.24;67631;1282;1016313;-71
2024/01/30 03:58:53;;;;;;;;;;;;;;;6.00;55.91;100596.78;67593;1282;1016368;-71
2024/01/30 04:01:55;;;;;;;;;;;;;;;5.93;56.33;100599.62;67533;1282;1016272;-71
2024/01/30 04:04:58;;;;;;;;;;;;;;;5.87;56.40;100596.58;67545;1282;1015724;-71
2024/01/30 04:08:01;;;;;;;;;;;;;;;5.87;56.17;100596.23;67586;1282;1016144;-70
2024/01/30 04:11:03;;;;;;;;;;;;;;;5.79;56.34;100596.16;67595;1282;1015708;-71
2024/01/30 04:14:05;;;;;;;;;;;;;;;5.80;56.47;100595.79;67552;1282;1016479;-70
2024/01/30 04:17:08;;;;;;;;;;;;;;;5.72;56.34;100590.17;67565;1282;1016486;-70
2024/01/30 04:20:10;;;;;;;;;;;;;;;5.70;56.46;100590.38;67577;1282;1016387;-67
2024/01/30 04:23:13;;;;;;;;;;;;;;;5.62;56.71;100589.95;67605;1282;1016517;-70
2024/01/30 04:26:15;;;;;;;;;;;;;;;5.54;56.82;100582.92;67566;1282;1016471;-71
2024/01/30 04:29:19;;;;;;;;;;;;;;;5.64;56.87;100586.11;67537;1282;1016777;-71
2024/01/30 04:32:21;;;;;;;;;;;;;;;5.68;56.93;100589.53;67554;1282;1016567;-70
2024/01/30 04:35:24;;;;;;;;;;;;;;;5.65;56.90;100592.70;67556;1282;1016818;-71
2024/01/30 04:38:27;;;;;;;;;;;;;;;5.65;56.57;100594.77;67601;1282;1016659;-70
2024/01/30 04:41:31;;;;;;;;;;;;;;;5.60;56.81;100603.88;67556;1282;1016537;-68
2024/01/30 04:44:33;;;;;;;;;;;;;;;5.55;57.15;100608.43;67537;1282;1018000;-70
2024/01/30 04:47:36;;;;;;;;;;;;;;;5.59;56.92;100611.52;67555;1282;1016508;-71
2024/01/30 04:50:38;;;;;;;;;;;;;;;5.60;56.78;100612.73;67582;1282;1016504;-70
2024/01/30 04:53:41;;;;;;;;;;;;;;;5.60;56.56;100614.80;67568;1282;1016936;-70
2024/01/30 04:56:43;;;;;;;;;;;;;;;5.62;56.81;100619.47;67579;1282;1016300;-70
2024/01/30 04:59:46;;;;;;;;;;;;;;;5.63;56.26;100618.58;67526;1282;1016469;-71
2024/01/30 05:02:48;;;;;;;;;;;;;;;5.58;56.56;100615.15;67564;1282;1016648;-71
2024/01/30 05:05:51;;;;;;;;;;;;;;;5.50;56.61;100613.88;67556;1282;1017018;-70
2024/01/30 05:08:53;;;;;;;;;;;;;;;5.38;56.90;100616.61;67530;1282;1018149;-70
2024/01/30 05:11:56;;;;;;;;;;;;;;;5.37;56.90;100616.62;67532;1282;1017740;-71
2024/01/30 05:14:58;;;;;;;;;;;;;;;5.29;56.99;100611.33;67542;1282;1016265;-70
2024/01/30 05:18:01;;;;;;;;;;;;;;;5.19;57.31;100613.33;67573;1282;1016596;-70
2024/01/30 05:21:03;;;;;;;;;;;;;;;5.24;57.56;100609.81;67569;1282;1016484;-70
2024/01/30 05:24:06;;;;;;;;;;;;;;;5.35;57.38;100608.99;67499;1282;1016482;-70
2024/01/30 05:27:08;;;;;;;;;;;;;;;5.44;57.33;100615.33;67543;1282;1016405;-71
2024/01/30 05:30:11;;;;;;;;;;;;;;;5.47;56.98;100619.45;67571;1282;1018459;-69
2024/01/30 05:33:13;;;;;;;;;;;;;;;5.44;57.07;100617.76;67551;1282;1016408;-70
2024/01/30 05:36:16;;;;;;;;;;;;;;;5.48;56.83;100618.23;67531;1282;1016440;-70
2024/01/30 05:39:20;;;;;;;;;;;;;;;5.38;56.92;100617.48;67510;1282;1016391;-70
2024/01/30 05:42:23;;;;;;;;;;;;;;;5.33;57.32;100614.58;67596;1282;1016305;-70
2024/01/30 05:45:25;;;;;;;;;;;;;;;5.26;57.42;100617.59;67592;1282;1016140;-71
2024/01/30 05:48:28;;;;;;;;;;;;;;;5.26;57.09;100614.14;67537;1282;1016517;-71
2024/01/30 05:51:30;;;;;;;;;;;;;;;5.35;56.58;100614.89;67530;1282;1015858;-68
2024/01/30 05:54:33;;;;;;;;;;;;;;;5.30;56.97;100611.84;67564;1282;1016015;-70
2024/01/30 05:57:35;;;;;;;;;;;;;;;5.31;57.12;100614.78;67588;1282;1016118;-70
2024/01/30 06:00:38;;;;;;;;;;;;;;;5.25;57.07;100614.83;67587;1282;1016254;-69
2024/01/30 06:03:40;;;;;;;;;;;;;;;5.35;56.85;100618.73;67513;1282;1016388;-70
2024/01/30 06:06:43;;;;;;;;;;;;;;;5.43;56.85;100618.98;67562;1282;1016106;-70
2024/01/30 06:09:46;;;;;;;;;;;;;;;5.45;56.68;100621.21;67574;1282;1016258;-70
2024/01/30 06:12:49;;;;;;;;;;;;;;;5.32;56.57;100620.67;67560;1282;1016954;-70
2024/01/30 06:15:51;;;;;;;;;;;;;;;5.29;56.80;100626.59;67577;1282;1016492;-70
2024/01/30 06:18:54;;;;;;;;;;;;;;;5.28;57.00;100625.38;67563;1282;1020277;-70
2024/01/30 06:21:57;;;;;;;;;;;;;;;5.31;56.61;100629.17;67499;1282;1016624;-71
2024/01/30 06:24:59;;;;;;;;;;;;;;;5.25;56.88;100632.88;67552;1282;1016484;-70
2024/01/30 06:28:01;;;;;;;;;;;;;;;5.29;56.88;100629.70;67547;1282;1018292;-70
2024/01/30 06:31:04;;;;;;;;;;;;;;;5.39;56.68;100630.83;67543;1282;1016521;-71
2024/01/30 06:34:06;;;;;;;;;;;;;;;5.44;56.45;100628.16;67510;1282;1016458;-71
2024/01/30 06:37:09;;;;;;;;;;;;;;;5.44;56.44;100633.36;67536;1282;1016438;-70
2024/01/30 06:40:11;;;;;;;;;;;;;;;5.42;56.12;100631.30;67592;1282;1016665;-69
2024/01/30 06:43:14;;;;;;;;;;;;;;;5.36;56.46;100629.30;67547;1282;1016298;-70
2024/01/30 06:46:17;;;;;;;;;;;;;;;5.37;56.78;100629.80;67532;1282;1016509;-70
2024/01/30 06:49:21;;;;;;;;;;;;;;;5.43;56.87;100630.26;67583;1282;1016547;-71
2024/01/30 06:52:24;;;;;;;;;;;;;;;5.55;56.45;100628.72;67572;1282;1016532;-70
2024/01/30 06:55:27;;;;;;;;;;;;;;;5.56;56.54;100627.34;67543;1282;1016350;-70
2024/01/30 06:58:29;;;;;;;;;;;;;;;5.63;56.64;100627.79;67528;1282;1016573;-70
2024/01/30 07:01:32;;;;;;;;;;;;;;;5.70;56.34;100626.13;67571;1282;1016142;-70
2024/01/30 07:04:36;;;;;;;;;;;;;;;5.68;56.32;100628.76;67540;1282;1019039;-70
2024/01/30 07:07:39;;;;;;;;;;;;;;;5.69;56.68;100629.79;67514;1282;1015959;-70
2024/01/30 07:10:42;;;;;;;;;;;;;;;5.88;56.27;100625.73;67578;1282;1017095;-70
2024/01/30 07:13:44;;;;;;;;;;;;;;;5.89;56.52;100627.46;67590;1282;1016367;-70
2024/01/30 07:16:46;;;;;;;;;;;;;;;5.96;56.13;100627.89;67528;1282;1016438;-70
2024/01/30 07:19:49;;;;;;;;;;;;;;;5.97;56.51;100635.86;67536;1282;1016444;-70
2024/01/30 07:22:51;;;;;;;;;;;;;;;6.04;56.65;100631.98;67575;1282;1016413;-69
2024/01/30 07:25:54;;;;;;;;;;;;;;;6.15;56.56;100631.32;67567;1282;1016458;-70
2024/01/30 07:28:56;;;;;;;;;;;;;;;6.36;56.33;100629.60;67579;1282;1016500;-70
2024/01/30 07:31:59;;;;;;;;;;;;;;;6.53;56.27;100632.33;67523;1282;1016372;-70
2024/01/30 07:35:01;;;;;;;;;;;;;;;6.69;55.67;100631.19;67519;1282;1016517;-68
2024/01/30 07:38:04;;;;;;;;;;;;;;;6.87;55.78;100635.95;67567;1282;1016798;-70
2024/01/30 07:41:06;;;;;;;;;;;;;;;7.10;55.34;100636.07;67563;1282;1016435;-70
2024/01/30 07:44:09;;;;;;;;;;;;;;;7.40;55.04;100639.34;67570;1282;1016317;-70
2024/01/30 07:47:11;;;;;;;;;;;;;;;7.69;54.81;100638.80;67543;1282;1016330;-70
2024/01/30 07:50:13;;;;;;;;;;;;;;;7.92;53.99;100636.92;67514;1282;1016496;-70
2024/01/30 07:53:16;;;;;;;;;;;;;;;8.00;53.87;100634.49;67580;1282;1016466;-70
2024/01/30 07:56:18;;;;;;;;;;;;;;;8.03;53.57;100633.91;67564;1282;1016460;-70
2024/01/30 07:59:24;;;;;;;;;;;;;;;8.16;54.03;100631.36;67505;1282;1016321;-68
2024/01/30 08:02:27;;;;;;;;;;;;;;;8.25;53.73;100627.49;67554;1282;1016504;-69
2024/01/30 08:05:29;;;;;;;;;;;;;;;8.39;53.73;100626.66;67503;1282;1016472;-68
2024/01/30 08:08:31;;;;;;;;;;;;;;;8.56;53.58;100627.67;67544;1282;1016470;-70
2024/01/30 08:11:34;;;;;;;;;;;;;;;8.78;53.27;100626.45;67554;1282;1016939;-69
2024/01/30 08:14:36;;;;;;;;;;;;;;;8.97;53.01;100625.79;67577;1282;1016254;-68
2024/01/30 08:17:39;;;;;;;;;;;;;;;9.02;52.37;100622.88;67554;1282;1016427;-70
2024/01/30 08:20:41;;;;;;;;;;;;;;;9.06;52.38;100625.75;67502;1282;1016471;-70
2024/01/30 08:23:44;;;;;;;;;;;;;;;9.13;52.77;100631.30;67544;1282;1016417;-70
2024/01/30 08:26:46;;;;;;;;;;;;;;;9.28;53.13;100635.30;67563;1282;1018098;-70
2024/01/30 08:29:50;;;;;;;;;;;;;;;9.47;52.56;100637.92;67562;1282;1019085;-70
2024/01/30 08:32:52;;;;;;;;;;;;;;;9.62;51.77;100635.08;67559;1282;1016460;-69
2024/01/30 08:35:55;;;;;;;;;;;;;;;9.48;51.80;100635.96;67577;1282;1016394;-70
2024/01/30 08:38:57;;;;;;;;;;;;;;;9.47;52.80;100637.39;67528;1282;1016503;-70
2024/01/30 08:42:00;;;;;;;;;;;;;;;9.43;52.24;100634.90;67514;1282;1016485;-70
2024/01/30 08:45:04;;;;;;;;;;;;;;;9.56;52.45;100635.75;67560;1282;1016305;-70
2024/01/30 08:48:09;;;;;;;;;;;;;;;9.72;52.48;100629.89;67528;1282;1016524;-70
2024/01/30 08:51:11;;;;;;;;;;;;;;;9.88;52.14;100625.59;67523;1282;1017904;-70
2024/01/30 08:54:14;;;;;;;;;;;;;;;9.96;52.16;100625.54;67515;1282;1016522;-69
2024/01/30 08:57:16;;;;;;;;;;;;;;;10.13;52.04;100624.67;67538;1282;1016529;-70
2024/01/30 09:00:18;;;;;;;;;;;;;;;10.22;51.65;100627.38;67577;1282;1015996;-70
2024/01/30 09:03:21;;;;;;;;;;;;;;;10.33;51.23;100623.52;67532;1282;1019610;-70
2024/01/30 09:06:24;;;;;;;;;;;;;;;10.47;51.03;100622.96;67514;1282;1018270;-70
2024/01/30 09:09:26;;;;;;;;;;;;;;;10.76;50.90;100624.30;67546;1282;1016299;-70
2024/01/30 09:12:29;;;;;;;;;;;;;;;10.94;50.21;100620.71;67561;1282;1016427;-70
2024/01/30 09:15:31;;;;;;;;;;;;;;;11.05;50.96;100615.96;67530;1282;1015899;-69
2024/01/30 09:18:34;;;;;;;;;;;;;;;11.16;50.11;100611.90;67527;1282;1016222;-70
2024/01/30 09:21:36;;;;;;;;;;;;;;;11.26;50.14;100608.58;67579;1282;1016398;-70
2024/01/30 09:24:39;;;;;;;;;;;;;;;11.32;49.42;100604.01;67576;1282;1016661;-70
2024/01/30 09:27:41;;;;;;;;;;;;;;;11.38;49.63;100600.45;67536;1282;1016279;-70
2024/01/30 09:30:44;;;;;;;;;;;;;;;11.48;49.55;100599.59;67515;1282;1016356;-70
2024/01/30 09:33:47;;;;;;;;;;;;;;;11.55;49.84;100596.69;67552;1282;1016501;-70
2024/01/30 09:36:50;;;;;;;;;;;;;;;11.62;48.75;100592.05;67507;1282;1019617;-70
2024/01/30 09:39:52;;;;;;;;;;;;;;;11.62;49.02;100593.11;67550;1282;1016544;-70
2024/01/30 09:42:55;;;;;;;;;;;;;;;11.80;48.85;100593.82;67540;1282;1016188;-71
2024/01/30 09:45:57;;;;;;;;;;;;;;;11.92;48.37;100590.05;67496;1282;1016274;-70
2024/01/30 09:49:00;;;;;;;;;;;;;;;12.09;48.72;100585.04;67513;1282;1016385;-70
2024/01/30 09:52:03;;;;;;;;;;;;;;;12.21;48.41;100586.49;67551;1282;1016341;-70
2024/01/30 09:55:06;;;;;;;;;;;;;;;12.20;48.09;100584.45;67518;1282;1017453;-70
2024/01/30 09:58:08;;;;;;;;;;;;;;;12.31;47.67;100585.21;67569;1282;1016385;-71
2024/01/30 10:01:11;;;;;;;;;;;;;;;12.43;47.94;100578.59;67531;1282;1016302;-70
2024/01/30 10:04:14;;;;;;;;;;;;;;;12.53;47.87;100575.03;67529;1282;1018408;-70
2024/01/30 10:07:16;;;;;;;;;;;;;;;12.64;47.11;100573.67;67527;1282;1016401;-72
2024/01/30 10:10:18;;;;;;;;;;;;;;;12.77;47.06;100569.29;67544;1282;1016098;-71
2024/01/30 10:13:21;;;;;;;;;;;;;;;12.88;46.63;100563.22;67561;1282;1016505;-70
2024/01/30 10:16:23;;;;;;;;;;;;;;;13.05;46.68;100562.14;67550;1282;1015716;-70
2024/01/30 10:19:26;;;;;;;;;;;;;;;13.22;46.46;100560.55;67498;1282;1016278;-71
2024/01/30 10:22:29;;;;;;;;;;;;;;;13.24;46.15;100558.30;67568;1282;1016837;-71
2024/01/30 10:25:31;;;;;;;;;;;;;;;13.24;45.88;100555.84;67551;1282;1015979;-70
2024/01/30 10:28:34;;;;;;;;;;;;;;;13.17;45.89;100555.98;67559;1282;1018509;-70
2024/01/30 10:31:36;;;;;;;;;;;;;;;13.18;44.68;100551.54;67522;1282;1015569;-71
2024/01/30 10:34:39;;;;;;;;;;;;;;;13.22;44.73;100546.28;67506;1282;1019379;-71
2024/01/30 10:37:41;;;;;;;;;;;;;;;13.10;43.80;100548.23;67557;1282;1018116;-69
2024/01/30 10:40:44;;;;;;;;;;;;;;;13.23;44.65;100545.56;67515;1282;1016414;-66
2024/01/30 10:43:47;;;;;;;;;;;;;;;13.30;44.70;100544.67;67481;1282;1016322;-70
2024/01/30 10:46:49;;;;;;;;;;;;;;;13.39;43.66;100537.48;67551;1282;1016438;-71
2024/01/30 10:49:52;;;;;;;;;;;;;;;13.47;43.45;100531.49;67534;1282;1016483;-69
2024/01/30 10:52:54;;;;;;;;;;;;;;;13.68;44.14;100530.15;67577;1282;1016384;-71
2024/01/30 10:55:57;;;;;;;;;;;;;;;13.82;43.92;100522.30;67512;1282;1016414;-71
2024/01/30 10:58:59;;;;;;;;;;;;;;;13.79;42.88;100518.77;67528;1282;1016390;-71
2024/01/30 11:02:02;;;;;;;;;;;;;;;13.76;43.33;100514.52;67538;1282;1016480;-71
2024/01/30 11:05:05;;;;;;;;;;;;;;;13.85;43.05;100507.41;67558;1282;1016172;-71
2024/01/30 11:08:07;;;;;;;;;;;;;;;13.87;42.67;100502.22;67501;1282;1017102;-71
2024/01/30 11:11:10;;;;;;;;;;;;;;;13.80;42.10;100499.02;67557;1282;1016691;-72
2024/01/30 11:14:12;;;;;;;;;;;;;;;13.79;41.86;100494.13;67543;1282;1018811;-71
2024/01/30 11:17:15;;;;;;;;;;;;;;;13.88;41.84;100494.96;67558;1282;1016144;-71
2024/01/30 11:20:19;;;;;;;;;;;;;;;13.96;41.94;100493.70;67484;1282;1016477;-72
2024/01/30 11:23:22;;;;;;;;;;;;;;;14.21;42.03;100487.38;67520;1282;1016405;-71
2024/01/30 11:26:24;;;;;;;;;;;;;;;14.25;41.37;100483.31;67560;1282;1016360;-72
2024/01/30 11:29:29;;;;;;;;;;;;;;;14.34;41.10;100478.11;67555;1282;1016277;-72
2024/01/30 11:32:31;;;;;;;;;;;;;;;14.35;41.16;100474.86;67509;1282;1018954;-72
2024/01/30 11:35:35;;;;;;;;;;;;;;;14.33;40.57;100474.45;67553;1282;1016261;-72
2024/01/30 11:38:37;;;;;;;;;;;;;;;14.33;40.96;100468.66;67496;1282;1016271;-72
2024/01/30 11:41:40;;;;;;;;;;;;;;;14.34;40.75;100467.92;67533;1282;1018646;-73
2024/01/30 11:44:42;;;;;;;;;;;;;;;14.48;40.73;100468.44;67581;1282;1017851;-72
2024/01/30 11:47:45;;;;;;;;;;;;;;;14.61;40.13;100467.45;67560;1282;1016296;-72
2024/01/30 11:50:47;;;;;;;;;;;;;;;14.67;40.24;100467.50;67520;1282;1016350;-71
2024/01/30 11:53:50;;;;;;;;;;;;;;;14.82;40.79;100461.40;67539;1282;1016408;-71
2024/01/30 11:56:52;;;;;;;;;;;;;;;15.02;40.22;100458.94;67558;1282;1016863;-72
2024/01/30 11:59:55;;;;;;;;;;;;;;;15.09;39.32;100454.38;67535;1282;1016437;-72
2024/01/30 12:02:58;;;;;;;;;;;;;;;15.14;39.94;100448.09;67490;1282;1016413;-72
2024/01/30 12:06:00;;;;;;;;;;;;;;;15.27;40.27;100440.68;67558;1282;1016220;-72
2024/01/30 12:09:04;;;;;;;;;;;;;;;15.31;39.84;100443.31;67546;1282;1016462;-72
2024/01/30 12:12:06;;;;;;;;;;;;;;;15.35;39.71;100439.90;67532;1282;1016456;-72
2024/01/30 12:15:09;;;;;;;;;;;;;;;15.37;39.21;100438.73;67540;1282;1016305;-72
2024/01/30 12:18:11;;;;;;;;;;;;;;;15.47;38.81;100438.02;67519;1282;1016156;-73
2024/01/30 12:21:14;;;;;;;;;;;;;;;15.45;38.63;100430.71;67510;1282;1016313;-73
2024/01/30 12:24:16;;;;;;;;;;;;;;;15.31;37.70;100428.33;67563;1282;1016224;-72
2024/01/30 12:27:19;;;;;;;;;;;;;;;15.31;37.60;100422.67;67517;1282;1018445;-72
2024/01/30 12:30:21;;;;;;;;;;;;;;;15.39;37.82;100423.46;67540;1282;1016488;-72
2024/01/30 12:33:24;;;;;;;;;;;;;;;15.50;37.61;100422.53;67504;1282;1016693;-72
2024/01/30 12:36:26;;;;;;;;;;;;;;;15.52;36.96;100419.06;67536;1282;1017043;-72
2024/01/30 12:39:29;;;;;;;;;;;;;;;15.39;35.92;100409.36;67557;1282;1016430;-72
2024/01/30 12:42:31;;;;;;;;;;;;;;;15.39;36.87;100413.06;67514;1282;1016416;-72
2024/01/30 12:45:34;;;;;;;;;;;;;;;15.54;36.93;100409.60;67491;1282;1016212;-73
2024/01/30 12:48:36;;;;;;;;;;;;;;;15.58;36.38;100409.72;67497;1282;1016118;-72
2024/01/30 12:51:39;;;;;;;;;;;;;;;15.58;36.21;100411.83;67540;1282;1016403;-72
2024/01/30 12:54:42;;;;;;;;;;;;;;;15.63;36.47;100412.05;67492;1282;1016522;-73
2024/01/30 12:57:44;;;;;;;;;;;;;;;15.66;36.46;100408.77;67499;1282;1016428;-73
2024/01/30 13:00:47;;;;;;;;;;;;;;;15.66;36.38;100409.77;67541;1282;1016552;-72
2024/01/30 13:03:49;;;;;;;;;;;;;;;15.77;36.15;100408.83;67551;1282;1016649;-72
2024/01/30 13:06:52;;;;;;;;;;;;;;;15.83;36.00;100409.39;67546;1282;1018883;-72
2024/01/30 13:09:55;;;;;;;;;;;;;;;15.93;35.69;100411.44;67518;1282;1016455;-72
2024/01/30 13:12:57;;;;;;;;;;;;;;;15.99;35.75;100412.88;67528;1282;1016420;-72
2024/01/30 13:16:00;;;;;;;;;;;;;;;16.07;34.93;100413.65;67536;1282;1016409;-72
2024/01/30 13:19:02;;;;;;;;;;;;;;;16.06;34.93;100413.02;67561;1282;1016283;-72
2024/01/30 13:22:05;;;;;;;;;;;;;;;15.99;35.47;100408.62;67532;1282;1016515;-72
2024/01/30 13:25:07;;;;;;;;;;;;;;;15.97;35.63;100407.88;67540;1282;1016426;-72
2024/01/30 13:28:10;;;;;;;;;;;;;;;16.14;36.11;100405.47;67573;1282;1015952;-72
2024/01/30 13:31:12;;;;;;;;;;;;;;;16.15;36.13;100402.77;67554;1282;1016477;-73
2024/01/30 13:34:15;;;;;;;;;;;;;;;16.12;36.50;100402.23;67545;1282;1016459;-70
2024/01/30 13:37:18;;;;;;;;;;;;;;;16.19;36.75;100406.05;67560;1282;1016421;-72
2024/01/30 13:40:22;;;;;;;;;;;;;;;16.20;36.51;100400.88;67594;1282;1016649;-72
2024/01/30 13:43:25;;;;;;;;;;;;;;;16.20;36.77;100401.23;67523;1282;1016233;-73
2024/01/30 13:46:28;;;;;;;;;;;;;;;16.11;36.76;100399.63;67513;1282;1016562;-72
2024/01/30 13:49:31;;;;;;;;;;;;;;;16.15;36.73;100399.21;67544;1282;1016222;-72
2024/01/30 13:52:33;;;;;;;;;;;;;;;16.16;36.71;100401.15;67516;1282;1016182;-72
2024/01/30 13:55:36;;;;;;;;;;;;;;;16.18;36.56;100396.95;67560;1282;1016432;-72
2024/01/30 13:58:38;;;;;;;;;;;;;;;16.18;36.41;100395.39;67554;1282;1016467;-72
2024/01/30 14:01:41;;;;;;;;;;;;;;;16.04;36.49;100390.91;67534;1282;1016391;-72
2024/01/30 14:04:43;;;;;;;;;;;;;;;15.96;36.45;100390.10;67555;1282;1016395;-72
2024/01/30 14:07:46;;;;;;;;;;;;;;;15.82;36.74;100388.25;67579;1282;1016512;-72
2024/01/30 14:10:49;;;;;;;;;;;;;;;15.74;36.83;100389.76;67571;1282;1016121;-72
2024/01/30 14:13:52;;;;;;;;;;;;;;;15.84;36.86;100387.09;67554;1282;1016148;-72
2024/01/30 14:16:54;;;;;;;;;;;;;;;15.72;36.77;100388.29;67561;1282;1016378;-72
2024/01/30 14:19:57;;;;;;;;;;;;;;;15.62;37.17;100388.34;67528;1282;1016441;-72
2024/01/30 14:23:00;;;;;;;;;;;;;;;15.64;36.98;100390.49;67566;1282;1016394;-72
2024/01/30 14:26:02;;;;;;;;;;;;;;;15.66;37.00;100384.92;67589;1282;1016381;-71
2024/01/30 14:29:05;;;;;;;;;;;;;;;15.72;36.75;100385.09;67551;1282;1016369;-73
2024/01/30 14:32:07;;;;;;;;;;;;;;;15.67;36.66;100384.51;67536;1282;1016431;-72
2024/01/30 14:35:10;;;;;;;;;;;;;;;15.47;36.90;100380.02;67578;1282;1016435;-72
2024/01/30 14:38:14;;;;;;;;;;;;;;;15.37;36.99;100379.68;67582;1282;1018220;-72
2024/01/30 14:41:16;;;;;;;;;;;;;;;15.33;36.88;100377.64;67565;1282;1016580;-70
2024/01/30 14:44:19;;;;;;;;;;;;;;;15.19;36.84;100375.75;67548;1282;1016440;-72
2024/01/30 14:47:21;;;;;;;;;;;;;;;15.09;37.16;100373.52;67528;1282;1016468;-73
2024/01/30 14:50:24;;;;;;;;;;;;;;;15.01;37.11;100377.11;67582;1282;1016537;-73
2024/01/30 14:53:27;;;;;;;;;;;;;;;14.92;37.34;100372.84;67558;1282;1016262;-72
2024/01/30 14:56:30;;;;;;;;;;;;;;;14.80;37.47;100375.77;67563;1282;1016768;-73
2024/01/30 14:59:34;;;;;;;;;;;;;;;14.70;37.35;100375.44;67582;1282;1016053;-73
2024/01/30 15:02:36;;;;;;;;;;;;;;;14.55;37.27;100376.20;67576;1282;1016485;-73
2024/01/30 15:05:39;;;;;;;;;;;;;;;14.38;37.30;100374.75;67517;1282;1016285;-73
2024/01/30 15:08:41;;;;;;;;;;;;;;;14.29;37.44;100372.09;67509;1282;1015578;-73
2024/01/30 15:11:44;;;;;;;;;;;;;;;14.17;37.53;100374.42;67563;1282;1016352;-73
2024/01/30 15:14:50;;;;;;;;;;;;;;;14.01;37.49;100376.80;67563;1282;1016520;-73
2024/01/30 15:17:53;;;;;;;;;;;;;;;13.85;37.70;100378.17;67547;1282;1016432;-73
2024/01/30 15:20:56;;;;;;;;;;;;;;;13.74;37.78;100377.82;67542;1282;1018816;-72